createdAt,value
2017-07-17T14:27:22.323Z,997.13
2017-07-17T14:28:12.582Z,997.08
2017-07-17T14:29:13.325Z,997.06
2017-07-17T14:30:12.621Z,997.15
2017-07-17T14:31:12.901Z,997.16
2017-07-17T14:32:13.149Z,997.12
2017-07-17T14:33:12.568Z,997.19
2017-07-17T14:34:13.070Z,997.16
2017-07-17T14:35:13.028Z,997.17
2017-07-17T14:36:12.974Z,997.24
2017-07-17T14:37:13.034Z,997.09
2017-07-17T14:38:13.095Z,997.23
2017-07-17T14:39:13.307Z,997.14
2017-07-17T14:40:13.021Z,997.23
2017-07-17T14:41:13.035Z,997.16
2017-07-17T14:42:12.755Z,997.24
2017-07-17T14:43:12.800Z,997.15
2017-07-17T14:44:13.382Z,997.18
2017-07-17T14:45:12.756Z,997.18
2017-07-17T14:46:12.602Z,997.19
2017-07-17T14:47:13.028Z,997.16
2017-07-17T14:48:12.986Z,997.07
2017-07-17T14:49:13.169Z,997.21
2017-07-17T14:50:12.605Z,997.19
2017-07-17T14:51:12.902Z,997.23
2017-07-17T14:52:13.037Z,997.25
2017-07-17T14:53:13.151Z,997.22
2017-07-17T14:54:13.173Z,997.16
2017-07-17T14:55:13.077Z,997.26
2017-07-17T14:56:12.987Z,997.21
2017-07-17T14:57:13.022Z,997.20
2017-07-17T14:58:13.061Z,997.18
2017-07-17T14:59:13.663Z,997.16
2017-07-17T15:00:13.344Z,997.19
2017-07-17T15:01:12.924Z,997.27
2017-07-17T15:02:13.561Z,997.16
2017-07-17T15:03:13.502Z,997.19
2017-07-17T15:04:13.372Z,997.23
2017-07-17T15:05:12.657Z,997.13
2017-07-17T15:06:12.648Z,997.10
2017-07-17T15:07:12.654Z,997.17
2017-07-17T15:08:13.087Z,997.05
2017-07-17T15:09:13.196Z,997.09
2017-07-17T15:10:13.207Z,997.12
2017-07-17T15:11:13.104Z,997.03
2017-07-17T15:12:13.106Z,997.09
2017-07-17T15:13:13.341Z,997.06
2017-07-17T15:14:13.368Z,997.00
2017-07-17T15:15:13.087Z,997.02
2017-07-17T15:16:13.111Z,997.07
2017-07-17T15:17:13.423Z,997.10
2017-07-17T15:18:12.928Z,997.11
2017-07-17T15:19:13.766Z,997.08
2017-07-17T15:20:12.897Z,997.05
2017-07-17T15:21:12.969Z,997.00
2017-07-17T15:22:12.701Z,996.88
2017-07-17T15:23:12.758Z,996.92
2017-07-17T15:24:12.715Z,996.94
2017-07-17T15:26:52.927Z,996.96
2017-07-17T15:27:22.459Z,996.98
2017-07-17T15:28:12.593Z,996.93
2017-07-17T15:29:13.379Z,996.95
2017-07-17T15:30:12.649Z,996.96
2017-07-17T15:31:12.719Z,996.82
2017-07-17T15:32:12.857Z,996.86
2017-07-17T15:33:12.613Z,996.88
2017-07-17T15:34:13.166Z,996.86
2017-07-17T15:35:13.188Z,996.92
2017-07-17T15:36:13.087Z,996.90
2017-07-17T15:37:13.079Z,996.84
2017-07-17T15:38:13.138Z,996.84
2017-07-17T15:39:13.130Z,996.84
2017-07-17T15:40:13.318Z,996.88
2017-07-17T15:41:12.822Z,996.79
2017-07-17T15:42:13.157Z,996.84
2017-07-17T15:43:16.511Z,996.80
2017-07-17T15:44:12.629Z,996.83
2017-07-17T15:45:13.691Z,996.78
2017-07-17T15:46:13.141Z,996.75
2017-07-17T15:47:12.768Z,996.78
2017-07-17T15:48:13.392Z,996.73
2017-07-17T15:49:12.817Z,996.77
2017-07-17T15:50:12.925Z,996.79
2017-07-17T15:51:12.741Z,996.77
2017-07-17T15:52:13.082Z,996.78
2017-07-17T15:53:13.369Z,996.83
2017-07-17T15:54:13.140Z,996.81
2017-07-17T15:55:13.394Z,996.82
2017-07-17T15:56:13.231Z,996.81
2017-07-17T15:57:13.162Z,996.79
2017-07-17T15:58:13.297Z,996.83
2017-07-17T15:59:12.930Z,996.82
2017-07-17T16:00:13.473Z,996.82
2017-07-17T16:01:13.088Z,996.82
2017-07-17T16:02:12.707Z,996.86
2017-07-17T16:03:13.144Z,996.78
2017-07-17T16:04:12.751Z,996.78
2017-07-17T16:05:13.215Z,996.88
2017-07-17T16:06:12.723Z,996.85
2017-07-17T16:07:13.178Z,996.80
2017-07-17T16:08:13.139Z,996.85
2017-07-17T16:09:13.126Z,996.85
2017-07-17T16:10:18.372Z,996.79
2017-07-17T16:11:12.721Z,996.78
2017-07-17T16:12:13.155Z,996.80
2017-07-17T16:13:13.296Z,996.84
2017-07-17T16:14:13.117Z,996.74
2017-07-17T16:15:13.461Z,996.66
2017-07-17T16:16:13.423Z,996.71
2017-07-17T16:17:13.279Z,996.71
2017-07-17T16:18:12.932Z,996.71
2017-07-17T16:19:12.990Z,996.75
2017-07-17T16:20:13.521Z,996.65
2017-07-17T16:21:13.540Z,996.64
2017-07-17T16:22:12.782Z,996.64
2017-07-17T16:23:12.953Z,996.67
2017-07-17T16:24:12.729Z,996.72
2017-07-17T16:25:13.229Z,996.72
2017-07-17T16:26:13.235Z,996.68
2017-07-17T16:27:13.165Z,996.71
2017-07-17T16:28:13.260Z,996.65
2017-07-17T16:29:13.158Z,996.66
2017-07-17T16:30:13.587Z,996.69
2017-07-17T16:31:13.313Z,996.63
2017-07-17T16:32:13.179Z,996.58
2017-07-17T16:33:13.016Z,996.62
2017-07-17T16:34:13.030Z,996.64
2017-07-17T16:35:13.570Z,996.56
2017-07-17T16:36:12.800Z,996.57
2017-07-17T16:37:12.833Z,996.49
2017-07-17T16:38:12.802Z,996.53
2017-07-17T16:39:12.961Z,996.48
2017-07-17T16:40:13.373Z,996.49
2017-07-17T16:41:12.770Z,996.59
2017-07-17T16:42:13.210Z,996.55
2017-07-17T16:43:13.256Z,996.58
2017-07-17T16:44:13.295Z,996.54
2017-07-17T16:45:13.479Z,996.56
2017-07-17T16:46:13.251Z,996.58
2017-07-17T16:47:13.243Z,996.52
2017-07-17T16:48:13.610Z,996.52
2017-07-17T16:49:13.289Z,996.56
2017-07-17T16:50:13.539Z,996.50
2017-07-17T16:51:13.063Z,996.54
2017-07-17T16:52:13.102Z,996.59
2017-07-17T16:53:13.119Z,996.51
2017-07-17T16:54:12.843Z,996.49
2017-07-17T16:55:13.357Z,996.47
2017-07-17T16:56:12.843Z,996.53
2017-07-17T16:57:12.906Z,996.52
2017-07-17T16:58:12.909Z,996.58
2017-07-17T16:59:13.272Z,996.56
2017-07-17T17:00:13.357Z,996.64
2017-07-17T17:01:13.262Z,996.58
2017-07-17T17:02:13.365Z,996.63
2017-07-17T17:03:13.489Z,996.58
2017-07-17T17:04:13.481Z,996.62
2017-07-17T17:05:13.678Z,996.61
2017-07-17T17:06:13.371Z,996.66
2017-07-17T17:07:13.105Z,996.71
2017-07-17T17:08:13.157Z,996.67
2017-07-17T17:09:13.229Z,996.70
2017-07-17T17:10:13.637Z,996.79
2017-07-17T17:11:12.867Z,996.69
2017-07-17T17:12:12.897Z,996.71
2017-07-17T17:13:12.931Z,996.73
2017-07-17T17:14:12.925Z,996.70
2017-07-17T17:15:13.675Z,996.71
2017-07-17T17:15:19.816Z,996.71
2017-07-17T17:16:12.888Z,996.76
2017-07-17T17:17:13.129Z,996.76
2017-07-17T17:18:13.776Z,996.83
2017-07-17T17:19:12.975Z,996.84
2017-07-17T17:20:13.388Z,996.85
2017-07-17T17:21:12.915Z,996.81
2017-07-17T17:22:13.368Z,996.82
2017-07-17T17:23:13.348Z,996.80
2017-07-17T17:24:13.332Z,996.82
2017-07-17T17:25:13.624Z,996.83
2017-07-17T17:26:13.417Z,996.84
2017-07-17T17:27:13.441Z,996.77
2017-07-17T17:28:13.377Z,996.83
2017-07-17T17:29:13.418Z,996.75
2017-07-17T17:30:13.690Z,996.80
2017-07-17T17:31:13.144Z,996.74
2017-07-17T17:32:13.274Z,996.85
2017-07-17T17:33:13.533Z,996.79
2017-07-17T17:34:13.002Z,996.79
2017-07-17T17:35:13.706Z,996.85
2017-07-17T17:36:13.001Z,996.82
2017-07-17T17:37:13.019Z,996.89
2017-07-17T17:38:13.155Z,996.84
2017-07-17T17:39:13.126Z,996.83
2017-07-17T17:40:13.317Z,996.86
2017-07-17T17:41:13.017Z,996.89
2017-07-17T17:42:13.400Z,996.85
2017-07-17T17:43:13.467Z,996.89
2017-07-17T17:44:13.449Z,996.89
2017-07-17T17:45:13.712Z,996.84
2017-07-17T17:46:13.399Z,996.90
2017-07-17T17:47:13.869Z,996.91
2017-07-17T17:48:13.644Z,996.93
2017-07-17T17:49:13.272Z,996.93
2017-07-17T17:50:13.749Z,996.99
2017-07-17T17:51:13.005Z,996.89
2017-07-17T17:52:12.991Z,996.92
2017-07-17T17:53:13.001Z,997.00
2017-07-17T17:54:12.995Z,997.00
2017-07-17T17:55:13.489Z,996.99
2017-07-17T17:56:13.491Z,996.97
2017-07-17T17:57:13.475Z,996.97
2017-07-17T17:58:13.594Z,997.00
2017-07-17T17:59:13.592Z,997.00
2017-07-17T18:00:13.768Z,996.99
2017-07-17T18:01:13.498Z,997.05
2017-07-17T18:02:13.484Z,997.05
2017-07-17T18:03:13.955Z,997.07
2017-07-17T18:04:13.441Z,997.03
2017-07-17T18:05:13.799Z,997.03
2017-07-17T18:06:13.420Z,997.03
2017-07-17T18:07:13.399Z,997.04
2017-07-17T18:08:13.416Z,997.06
2017-07-17T18:09:13.428Z,996.99
2017-07-17T18:10:13.611Z,997.10
2017-07-17T18:11:13.052Z,997.07
2017-07-17T18:12:13.572Z,997.03
2017-07-17T18:13:13.563Z,997.06
2017-07-17T18:14:13.611Z,997.06
2017-07-17T18:15:13.554Z,997.06
2017-07-17T18:16:13.476Z,997.07
2017-07-17T18:17:13.523Z,997.06
2017-07-17T18:18:13.613Z,997.09
2017-07-17T18:19:13.534Z,997.13
2017-07-17T18:20:13.569Z,997.16
2017-07-17T18:21:13.528Z,997.11
2017-07-17T18:22:13.286Z,997.08
2017-07-17T18:23:13.318Z,997.15
2017-07-17T18:24:13.356Z,997.20
2017-07-17T18:25:13.489Z,997.18
2017-07-17T18:26:13.126Z,997.11
2017-07-17T18:27:13.158Z,997.19
2017-07-17T18:28:13.277Z,997.16
2017-07-17T18:29:13.095Z,997.09
2017-07-17T18:30:13.422Z,997.16
2017-07-17T18:31:13.500Z,997.10
2017-07-17T18:32:13.576Z,997.10
2017-07-17T18:33:13.542Z,997.17
2017-07-17T18:34:13.634Z,997.08
2017-07-17T18:35:13.633Z,997.15
2017-07-17T18:36:13.660Z,997.07
2017-07-17T18:37:13.511Z,997.04
2017-07-17T18:38:13.571Z,997.08
2017-07-17T18:39:13.374Z,997.06
2017-07-17T18:40:13.600Z,997.12
2017-07-17T18:41:13.326Z,997.13
2017-07-17T18:42:13.398Z,997.10
2017-07-17T18:43:13.185Z,997.07
2017-07-17T18:44:13.214Z,997.10
2017-07-17T18:45:13.248Z,997.06
2017-07-17T18:46:13.224Z,997.04
2017-07-17T18:47:13.218Z,997.00
2017-07-17T18:48:13.550Z,996.96
2017-07-17T18:49:13.594Z,997.04
2017-07-17T18:50:13.893Z,997.00
2017-07-17T18:51:13.593Z,997.04
2017-07-17T18:52:13.612Z,997.08
2017-07-17T18:53:13.640Z,997.04
2017-07-17T18:54:13.570Z,997.08
2017-07-17T18:55:13.654Z,997.06
2017-07-17T18:56:13.710Z,997.08
2017-07-17T18:57:13.441Z,997.11
2017-07-17T18:58:13.467Z,997.13
2017-07-17T18:59:13.205Z,997.06
2017-07-17T19:00:13.596Z,997.05
2017-07-17T19:01:13.242Z,997.10
2017-07-17T19:02:13.271Z,997.06
2017-07-17T19:03:13.187Z,997.10
2017-07-17T19:04:13.716Z,997.04
2017-07-17T19:05:13.644Z,997.11
2017-07-17T19:06:13.677Z,997.14
2017-07-17T19:07:13.604Z,997.12
2017-07-17T19:08:13.659Z,997.12
2017-07-17T19:09:13.702Z,997.16
2017-07-17T19:10:13.932Z,997.16
2017-07-17T19:11:13.698Z,997.15
2017-07-17T19:12:13.855Z,997.18
2017-07-17T19:13:13.673Z,997.17
2017-07-17T19:14:14.217Z,997.21
2017-07-17T19:15:13.436Z,997.23
2017-07-17T19:16:13.965Z,997.25
2017-07-17T19:17:13.711Z,997.28
2017-07-17T19:18:13.312Z,997.26
2017-07-17T19:19:13.252Z,997.32
2017-07-17T19:20:13.279Z,997.27
2017-07-17T19:21:14.191Z,997.29
2017-07-17T19:22:13.272Z,997.34
2017-07-17T19:23:13.794Z,997.36
2017-07-17T19:24:13.801Z,997.33
2017-07-17T19:25:13.988Z,997.34
2017-07-17T19:26:13.954Z,997.42
2017-07-17T19:27:13.669Z,997.40
2017-07-17T19:28:13.936Z,997.40
2017-07-17T19:29:14.256Z,997.43
2017-07-17T19:30:13.475Z,997.43
2017-07-17T19:31:13.984Z,997.42
2017-07-17T19:32:13.486Z,997.38
2017-07-17T19:33:13.599Z,997.44
2017-07-17T19:34:13.304Z,997.41
2017-07-17T19:35:13.303Z,997.37
2017-07-17T19:36:13.909Z,997.49
2017-07-17T19:37:13.389Z,997.37
2017-07-17T19:38:13.281Z,997.37
2017-07-17T19:39:13.799Z,997.44
2017-07-17T19:40:13.809Z,997.39
2017-07-17T19:41:13.869Z,997.42
2017-07-17T19:42:13.731Z,997.37
2017-07-17T19:43:14.003Z,997.39
2017-07-17T19:44:14.167Z,997.51
2017-07-17T19:45:13.932Z,997.43
2017-07-17T19:46:14.111Z,997.46
2017-07-17T19:47:13.551Z,997.42
2017-07-17T19:48:13.850Z,997.42
2017-07-17T19:49:13.601Z,997.50
2017-07-17T19:50:13.533Z,997.46
2017-07-17T19:51:13.879Z,997.42
2017-07-17T19:52:13.400Z,997.47
2017-07-17T19:53:13.424Z,997.57
2017-07-17T19:54:13.363Z,997.59
2017-07-17T19:55:13.631Z,997.57
2017-07-17T19:56:13.875Z,997.56
2017-07-17T19:57:13.754Z,997.58
2017-07-17T19:58:13.982Z,997.54
2017-07-17T19:59:13.914Z,997.53
2017-07-17T20:00:13.825Z,997.53
2017-07-17T20:01:14.089Z,997.48
2017-07-17T20:02:13.810Z,997.51
2017-07-17T20:03:13.972Z,997.50
2017-07-17T20:04:13.838Z,997.52
2017-07-17T20:05:13.574Z,997.47
2017-07-17T20:06:13.947Z,997.48
2017-07-17T20:07:13.630Z,997.41
2017-07-17T20:08:13.687Z,997.49
2017-07-17T20:09:13.443Z,997.51
2017-07-17T20:10:13.459Z,997.47
2017-07-17T20:11:13.932Z,997.48
2017-07-17T20:12:13.573Z,997.54
2017-07-17T20:13:13.472Z,997.52
2017-07-17T20:14:13.768Z,997.55
2017-07-17T20:15:13.472Z,997.57
2017-07-17T20:16:14.104Z,997.49
2017-07-17T20:17:14.034Z,997.53
2017-07-17T20:18:13.948Z,997.51
2017-07-17T20:19:13.858Z,997.54
2017-07-17T20:20:13.913Z,997.56
2017-07-17T20:21:14.142Z,997.57
2017-07-17T20:22:13.944Z,997.50
2017-07-17T20:23:13.670Z,997.49
2017-07-17T20:24:13.666Z,997.63
2017-07-17T20:25:13.443Z,997.59
2017-07-17T20:26:14.169Z,997.59
2017-07-17T20:27:13.450Z,997.56
2017-07-17T20:28:13.484Z,997.58
2017-07-17T20:29:14.636Z,997.62
2017-07-17T20:30:13.627Z,997.62
2017-07-17T20:31:13.749Z,997.58
2017-07-17T20:32:13.503Z,997.58
2017-07-17T20:33:13.873Z,997.59
2017-07-17T20:34:13.882Z,997.62
2017-07-17T20:35:13.859Z,997.64
2017-07-17T20:36:14.214Z,997.60
2017-07-17T20:37:13.968Z,997.64
2017-07-17T20:38:13.916Z,997.58
2017-07-17T20:39:13.968Z,997.55
2017-07-17T20:40:13.735Z,997.58
2017-07-17T20:41:14.209Z,997.58
2017-07-17T20:42:13.943Z,997.55
2017-07-17T20:43:13.878Z,997.54
2017-07-17T20:44:13.843Z,997.56
2017-07-17T20:45:13.530Z,997.56
2017-07-17T20:46:13.692Z,997.54
2017-07-17T20:47:13.540Z,997.62
2017-07-17T20:48:13.923Z,997.53
2017-07-17T20:49:14.203Z,997.55
2017-07-17T20:50:14.044Z,997.58
2017-07-17T20:51:14.053Z,997.57
2017-07-17T20:52:14.226Z,997.52
2017-07-17T20:53:13.941Z,997.62
2017-07-17T20:54:14.017Z,997.61
2017-07-17T20:55:13.999Z,997.54
2017-07-17T20:56:13.731Z,997.61
2017-07-17T20:57:14.702Z,997.48
2017-07-17T20:58:13.766Z,997.55
2017-07-17T20:59:13.529Z,997.60
2017-07-17T21:00:14.366Z,997.57
2017-07-17T21:01:13.538Z,997.62
2017-07-17T21:02:14.033Z,997.60
2017-07-17T21:03:13.561Z,997.58
2017-07-17T21:04:14.010Z,997.57
2017-07-17T21:05:13.970Z,997.51
2017-07-17T21:06:14.004Z,997.58
2017-07-17T21:07:14.157Z,997.62
2017-07-17T21:08:14.038Z,997.55
2017-07-17T21:09:14.052Z,997.53
2017-07-17T21:10:14.007Z,997.52
2017-07-17T21:11:14.027Z,997.58
2017-07-17T21:12:14.266Z,997.55
2017-07-17T21:13:13.797Z,997.59
2017-07-17T21:14:13.841Z,997.60
2017-07-17T21:15:14.405Z,997.48
2017-07-17T21:16:13.845Z,997.58
2017-07-17T21:17:14.409Z,997.50
2017-07-17T21:18:13.653Z,997.50
2017-07-17T21:19:13.703Z,997.48
2017-07-17T21:20:13.661Z,997.53
2017-07-17T21:21:13.693Z,997.49
2017-07-17T21:22:14.126Z,997.51
2017-07-17T21:23:14.057Z,997.58
2017-07-17T21:24:14.195Z,997.55
2017-07-17T21:25:14.231Z,997.56
2017-07-17T21:26:14.071Z,997.55
2017-07-17T21:27:14.403Z,997.54
2017-07-17T21:28:14.025Z,997.47
2017-07-17T21:29:14.051Z,997.48
2017-07-17T21:30:14.392Z,997.57
2017-07-17T21:31:13.923Z,997.44
2017-07-17T21:32:14.377Z,997.55
2017-07-17T21:33:13.913Z,997.54
2017-07-17T21:34:13.646Z,997.55
2017-07-17T21:35:13.673Z,997.51
2017-07-17T21:36:13.707Z,997.56
2017-07-17T21:37:13.753Z,997.51
2017-07-17T21:38:13.687Z,997.54
2017-07-17T21:39:14.134Z,997.59
2017-07-17T21:40:14.071Z,997.49
2017-07-17T21:41:14.120Z,997.59
2017-07-17T21:42:14.128Z,997.60
2017-07-17T21:43:14.355Z,997.58
2017-07-17T21:44:14.095Z,997.55
2017-07-17T21:45:14.081Z,997.59
2017-07-17T21:46:14.121Z,997.66
2017-07-17T21:47:13.962Z,997.62
2017-07-17T21:48:14.403Z,997.65
2017-07-17T21:49:14.038Z,997.66
2017-07-17T21:50:13.671Z,997.62
2017-07-17T21:51:13.752Z,997.59
2017-07-17T21:52:13.702Z,997.65
2017-07-17T21:53:14.240Z,997.58
2017-07-17T21:54:13.722Z,997.69
2017-07-17T21:55:14.133Z,997.59
2017-07-17T21:56:14.181Z,997.62
2017-07-17T21:57:14.193Z,997.59
2017-07-17T21:58:14.404Z,997.63
2017-07-17T21:59:14.227Z,997.61
2017-07-17T22:00:14.173Z,997.69
2017-07-17T22:01:14.110Z,997.68
2017-07-17T22:02:14.150Z,997.59
2017-07-17T22:03:14.439Z,997.65
2017-07-17T22:04:14.009Z,997.63
2017-07-17T22:05:13.714Z,997.63
2017-07-17T22:06:14.005Z,997.64
2017-07-17T22:07:13.769Z,997.63
2017-07-17T22:08:14.216Z,997.63
2017-07-17T22:09:13.783Z,997.62
2017-07-17T22:10:13.736Z,997.63
2017-07-17T22:11:14.192Z,997.64
2017-07-17T22:12:14.127Z,997.57
2017-07-17T22:13:14.264Z,997.62
2017-07-17T22:14:14.197Z,997.60
2017-07-17T22:15:14.545Z,997.61
2017-07-17T22:16:14.201Z,997.64
2017-07-17T22:17:14.146Z,997.68
2017-07-17T22:18:14.720Z,997.66
2017-07-17T22:19:14.382Z,997.69
2017-07-17T22:20:14.037Z,997.63
2017-07-17T22:21:13.978Z,997.68
2017-07-17T22:22:14.034Z,997.66
2017-07-17T22:23:14.560Z,997.68
2017-07-17T22:24:13.844Z,997.68
2017-07-17T22:25:13.798Z,997.63
2017-07-17T22:26:13.867Z,997.70
2017-07-17T22:27:13.784Z,997.70
2017-07-17T22:28:14.310Z,997.59
2017-07-17T22:29:14.243Z,997.55
2017-07-17T22:30:14.383Z,997.65
2017-07-17T22:31:14.412Z,997.60
2017-07-17T22:32:14.252Z,997.63
2017-07-17T22:33:14.600Z,997.65
2017-07-17T22:34:14.340Z,997.65
2017-07-17T22:35:14.277Z,997.65
2017-07-17T22:36:14.025Z,997.64
2017-07-17T22:37:14.347Z,997.67
2017-07-17T22:38:14.774Z,997.68
2017-07-17T22:39:13.807Z,997.70
2017-07-17T22:40:13.843Z,997.68
2017-07-17T22:41:13.874Z,997.68
2017-07-17T22:42:13.897Z,997.66
2017-07-17T22:43:14.395Z,997.66
2017-07-17T22:44:13.870Z,997.64
2017-07-17T22:45:14.355Z,997.63
2017-07-17T22:46:14.398Z,997.68
2017-07-17T22:47:14.329Z,997.60
2017-07-17T22:48:14.472Z,997.64
2017-07-17T22:49:14.310Z,997.63
2017-07-17T22:50:14.259Z,997.64
2017-07-17T22:51:14.294Z,997.67
2017-07-17T22:52:14.434Z,997.69
2017-07-17T22:53:14.573Z,997.60
2017-07-17T22:54:14.108Z,997.63
2017-07-17T22:55:14.146Z,997.57
2017-07-17T22:56:13.876Z,997.59
2017-07-17T22:57:13.928Z,997.64
2017-07-17T22:58:14.512Z,997.67
2017-07-17T22:59:13.938Z,997.57
2017-07-17T23:00:14.360Z,997.59
2017-07-17T23:01:14.291Z,997.58
2017-07-17T23:02:14.333Z,997.59
2017-07-17T23:03:14.598Z,997.57
2017-07-17T23:04:14.357Z,997.55
2017-07-17T23:05:14.399Z,997.57
2017-07-17T23:06:14.436Z,997.57
2017-07-17T23:07:14.373Z,997.60
2017-07-17T23:08:14.625Z,997.61
2017-07-17T23:09:14.145Z,997.61
2017-07-17T23:10:14.181Z,997.60
2017-07-17T23:11:13.910Z,997.56
2017-07-17T23:12:13.943Z,997.62
2017-07-17T23:13:13.963Z,997.69
2017-07-17T23:14:14.036Z,997.64
2017-07-17T23:15:14.467Z,997.66
2017-07-17T23:16:13.997Z,997.68
2017-07-17T23:17:14.326Z,997.68
2017-07-17T23:18:14.355Z,997.74
2017-07-17T23:19:14.385Z,997.75
2017-07-17T23:20:14.417Z,997.72
2017-07-17T23:21:14.338Z,997.64
2017-07-17T23:22:14.398Z,997.68
2017-07-17T23:23:14.727Z,997.75
2017-07-17T23:24:14.458Z,997.69
2017-07-17T23:25:14.190Z,997.67
2017-07-17T23:26:14.215Z,997.69
2017-07-17T23:27:14.254Z,997.64
2017-07-17T23:28:14.680Z,997.68
2017-07-17T23:29:14.033Z,997.66
2017-07-17T23:30:13.991Z,997.65
2017-07-17T23:31:14.006Z,997.70
2017-07-17T23:32:14.035Z,997.60
2017-07-17T23:33:14.470Z,997.63
2017-07-17T23:34:14.396Z,997.73
2017-07-17T23:35:14.426Z,997.59
2017-07-17T23:36:14.452Z,997.60
2017-07-17T23:37:14.477Z,997.66
2017-07-17T23:38:14.613Z,997.67
2017-07-17T23:39:14.444Z,997.61
2017-07-17T23:40:14.483Z,997.61
2017-07-17T23:41:14.633Z,997.60
2017-07-17T23:42:14.256Z,997.62
2017-07-17T23:43:14.801Z,997.61
2017-07-17T23:44:14.324Z,997.56
2017-07-17T23:45:14.052Z,997.60
2017-07-17T23:46:14.086Z,997.64
2017-07-17T23:47:14.013Z,997.66
2017-07-17T23:48:14.153Z,997.63
2017-07-17T23:49:14.176Z,997.61
2017-07-17T23:50:14.022Z,997.63
2017-07-17T23:51:14.562Z,997.62
2017-07-17T23:52:14.484Z,997.67
2017-07-17T23:53:14.504Z,997.69
2017-07-17T23:54:14.425Z,997.68
2017-07-17T23:55:14.476Z,997.65
2017-07-17T23:56:14.555Z,997.64
2017-07-17T23:57:14.499Z,997.65
2017-07-17T23:58:14.528Z,997.62
2017-07-17T23:59:14.282Z,997.66
